sensor_id;sensor_type;location;lat;lon;timestamp;P1;durP1;ratioP1;P2;durP2;ratioP2
49378;SDS011;35254;47.990;-1.608;2022-08-19T00:00:23;7.60;;;1.77;;
49378;SDS011;35254;47.990;-1.608;2022-08-19T00:02:50;2.72;;;1.85;;
49378;SDS011;35254;47.990;-1.608;2022-08-19T00:05:15;9.23;;;2.00;;
49378;SDS011;35254;47.990;-1.608;2022-08-19T00:07:42;9.02;;;2.63;;
49378;SDS011;35254;47.990;-1.608;2022-08-19T00:10:09;4.35;;;1.92;;
49378;SDS011;35254;47.990;-1.608;2022-08-19T00:12:36;3.35;;;2.08;;
49378;SDS011;35254;47.990;-1.608;2022-08-19T00:15:03;3.55;;;1.85;;
49378;SDS011;35254;47.990;-1.608;2022-08-19T00:17:31;2.05;;;1.83;;
49378;SDS011;35254;47.990;-1.608;2022-08-19T00:19:56;4.97;;;2.05;;
49378;SDS011;35254;47.990;-1.608;2022-08-19T00:22:22;3.08;;;1.92;;
49378;SDS011;35254;47.990;-1.608;2022-08-19T00:24:48;3.63;;;2.22;;
49378;SDS011;35254;47.990;-1.608;2022-08-19T00:27:13;2.95;;;1.73;;
49378;SDS011;35254;47.990;-1.608;2022-08-19T00:29:39;4.55;;;1.92;;
49378;SDS011;35254;47.990;-1.608;2022-08-19T00:32:05;3.38;;;2.20;;
49378;SDS011;35254;47.990;-1.608;2022-08-19T00:34:31;3.42;;;1.67;;
49378;SDS011;35254;47.990;-1.608;2022-08-19T00:36:57;2.95;;;1.65;;
49378;SDS011;35254;47.990;-1.608;2022-08-19T00:39:24;5.80;;;2.10;;
49378;SDS011;35254;47.990;-1.608;2022-08-19T00:41:50;4.18;;;2.53;;
49378;SDS011;35254;47.990;-1.608;2022-08-19T00:44:17;3.40;;;1.85;;
49378;SDS011;35254;47.990;-1.608;2022-08-19T00:46:45;3.15;;;2.10;;
49378;SDS011;35254;47.990;-1.608;2022-08-19T00:51:50;2.42;;;1.85;;
49378;SDS011;35254;47.990;-1.608;2022-08-19T00:54:19;3.42;;;2.30;;
49378;SDS011;35254;47.990;-1.608;2022-08-19T00:56:46;7.15;;;2.45;;
49378;SDS011;35254;47.990;-1.608;2022-08-19T00:59:13;3.85;;;2.10;;
49378;SDS011;35254;47.990;-1.608;2022-08-19T01:01:41;3.90;;;2.10;;
49378;SDS011;35254;47.990;-1.608;2022-08-19T01:04:08;4.25;;;2.05;;
49378;SDS011;35254;47.990;-1.608;2022-08-19T01:06:34;8.38;;;3.22;;
49378;SDS011;35254;47.990;-1.608;2022-08-19T01:09:02;6.88;;;2.20;;
49378;SDS011;35254;47.990;-1.608;2022-08-19T01:11:28;7.13;;;2.10;;
49378;SDS011;35254;47.990;-1.608;2022-08-19T01:13:56;7.15;;;2.45;;
49378;SDS011;35254;47.990;-1.608;2022-08-19T01:16:24;2.65;;;2.10;;
49378;SDS011;35254;47.990;-1.608;2022-08-19T01:18:52;8.52;;;3.03;;
49378;SDS011;35254;47.990;-1.608;2022-08-19T01:21:22;5.05;;;2.30;;
49378;SDS011;35254;47.990;-1.608;2022-08-19T01:23:53;5.03;;;2.45;;
49378;SDS011;35254;47.990;-1.608;2022-08-19T01:26:20;8.43;;;3.05;;
49378;SDS011;35254;47.990;-1.608;2022-08-19T01:28:48;4.25;;;2.15;;
49378;SDS011;35254;47.990;-1.608;2022-08-19T01:31:18;4.50;;;2.45;;
49378;SDS011;35254;47.990;-1.608;2022-08-19T01:33:46;6.55;;;2.22;;
49378;SDS011;35254;47.990;-1.608;2022-08-19T01:36:22;2.85;;;2.33;;
49378;SDS011;35254;47.990;-1.608;2022-08-19T01:39:11;4.50;;;2.53;;
49378;SDS011;35254;47.990;-1.608;2022-08-19T01:41:39;5.85;;;2.47;;
49378;SDS011;35254;47.990;-1.608;2022-08-19T01:44:05;6.82;;;2.03;;
49378;SDS011;35254;47.990;-1.608;2022-08-19T01:46:33;3.95;;;2.10;;
49378;SDS011;35254;47.990;-1.608;2022-08-19T01:48:59;4.03;;;2.45;;
49378;SDS011;35254;47.990;-1.608;2022-08-19T01:51:26;2.53;;;1.92;;
49378;SDS011;35254;47.990;-1.608;2022-08-19T01:53:53;4.35;;;2.10;;
49378;SDS011;35254;47.990;-1.608;2022-08-19T01:56:19;3.97;;;2.25;;
49378;SDS011;35254;47.990;-1.608;2022-08-19T01:58:47;4.97;;;2.25;;
49378;SDS011;35254;47.990;-1.608;2022-08-19T02:01:17;9.60;;;3.10;;
49378;SDS011;35254;47.990;-1.608;2022-08-19T02:03:43;2.83;;;1.98;;
49378;SDS011;35254;47.990;-1.608;2022-08-19T02:06:09;4.70;;;2.42;;
49378;SDS011;35254;47.990;-1.608;2022-08-19T02:08:36;4.25;;;2.10;;
49378;SDS011;35254;47.990;-1.608;2022-08-19T02:11:04;3.22;;;2.08;;
49378;SDS011;35254;47.990;-1.608;2022-08-19T02:13:29;2.50;;;2.05;;
49378;SDS011;35254;47.990;-1.608;2022-08-19T02:15:56;4.28;;;2.10;;
49378;SDS011;35254;47.990;-1.608;2022-08-19T02:18:22;2.03;;;1.83;;
49378;SDS011;35254;47.990;-1.608;2022-08-19T02:20:48;7.13;;;2.03;;
49378;SDS011;35254;47.990;-1.608;2022-08-19T02:23:14;6.43;;;2.22;;
49378;SDS011;35254;47.990;-1.608;2022-08-19T02:25:42;4.53;;;1.98;;
49378;SDS011;35254;47.990;-1.608;2022-08-19T02:28:09;2.90;;;2.15;;
49378;SDS011;35254;47.990;-1.608;2022-08-19T02:30:37;2.60;;;2.00;;
49378;SDS011;35254;47.990;-1.608;2022-08-19T02:33:03;5.95;;;2.00;;
49378;SDS011;35254;47.990;-1.608;2022-08-19T02:35:29;3.90;;;1.80;;
49378;SDS011;35254;47.990;-1.608;2022-08-19T02:37:55;5.22;;;2.35;;
49378;SDS011;35254;47.990;-1.608;2022-08-19T02:40:40;9.18;;;1.92;;
49378;SDS011;35254;47.990;-1.608;2022-08-19T02:43:14;2.95;;;1.92;;
49378;SDS011;35254;47.990;-1.608;2022-08-19T02:45:40;2.55;;;1.95;;
49378;SDS011;35254;47.990;-1.608;2022-08-19T02:48:06;3.15;;;1.98;;
49378;SDS011;35254;47.990;-1.608;2022-08-19T02:50:33;6.70;;;2.17;;
49378;SDS011;35254;47.990;-1.608;2022-08-19T02:53:02;4.43;;;2.20;;
49378;SDS011;35254;47.990;-1.608;2022-08-19T02:55:28;4.28;;;2.30;;
49378;SDS011;35254;47.990;-1.608;2022-08-19T02:57:54;3.97;;;1.88;;
49378;SDS011;35254;47.990;-1.608;2022-08-19T03:00:19;4.65;;;2.05;;
49378;SDS011;35254;47.990;-1.608;2022-08-19T03:02:45;3.13;;;2.03;;
49378;SDS011;35254;47.990;-1.608;2022-08-19T03:05:11;2.97;;;2.15;;
49378;SDS011;35254;47.990;-1.608;2022-08-19T03:07:38;2.58;;;2.00;;
49378;SDS011;35254;47.990;-1.608;2022-08-19T03:10:04;4.68;;;2.00;;
49378;SDS011;35254;47.990;-1.608;2022-08-19T03:12:30;2.78;;;2.35;;
49378;SDS011;35254;47.990;-1.608;2022-08-19T03:14:56;4.35;;;1.98;;
49378;SDS011;35254;47.990;-1.608;2022-08-19T03:17:21;3.20;;;1.75;;
49378;SDS011;35254;47.990;-1.608;2022-08-19T03:19:47;1.88;;;1.77;;
49378;SDS011;35254;47.990;-1.608;2022-08-19T03:22:13;5.68;;;2.40;;
49378;SDS011;35254;47.990;-1.608;2022-08-19T03:24:39;2.25;;;2.00;;
49378;SDS011;35254;47.990;-1.608;2022-08-19T03:27:05;3.05;;;2.28;;
49378;SDS011;35254;47.990;-1.608;2022-08-19T03:29:31;4.80;;;2.03;;
49378;SDS011;35254;47.990;-1.608;2022-08-19T03:32:01;2.20;;;2.00;;
49378;SDS011;35254;47.990;-1.608;2022-08-19T03:34:30;5.47;;;2.08;;
49378;SDS011;35254;47.990;-1.608;2022-08-19T03:36:59;2.17;;;1.83;;
49378;SDS011;35254;47.990;-1.608;2022-08-19T03:39:30;2.50;;;1.90;;
49378;SDS011;35254;47.990;-1.608;2022-08-19T03:41:55;4.38;;;2.38;;
49378;SDS011;35254;47.990;-1.608;2022-08-19T03:44:23;3.22;;;2.58;;
49378;SDS011;35254;47.990;-1.608;2022-08-19T03:46:55;5.28;;;2.45;;
49378;SDS011;35254;47.990;-1.608;2022-08-19T03:49:23;4.15;;;2.47;;
49378;SDS011;35254;47.990;-1.608;2022-08-19T03:51:51;4.43;;;2.23;;
49378;SDS011;35254;47.990;-1.608;2022-08-19T03:54:19;4.43;;;2.33;;
49378;SDS011;35254;47.990;-1.608;2022-08-19T03:56:48;3.25;;;2.38;;
49378;SDS011;35254;47.990;-1.608;2022-08-19T03:59:17;2.42;;;1.95;;
49378;SDS011;35254;47.990;-1.608;2022-08-19T04:01:46;4.20;;;2.63;;
49378;SDS011;35254;47.990;-1.608;2022-08-19T04:04:12;2.63;;;2.08;;
49378;SDS011;35254;47.990;-1.608;2022-08-19T04:06:38;2.65;;;2.10;;
49378;SDS011;35254;47.990;-1.608;2022-08-19T04:09:05;3.05;;;2.30;;
49378;SDS011;35254;47.990;-1.608;2022-08-19T04:11:34;2.95;;;2.20;;
49378;SDS011;35254;47.990;-1.608;2022-08-19T04:14:20;5.85;;;2.53;;
49378;SDS011;35254;47.990;-1.608;2022-08-19T04:16:48;2.90;;;2.70;;
49378;SDS011;35254;47.990;-1.608;2022-08-19T04:19:15;3.15;;;2.80;;
49378;SDS011;35254;47.990;-1.608;2022-08-19T04:21:46;5.35;;;3.22;;
49378;SDS011;35254;47.990;-1.608;2022-08-19T04:24:13;10.15;;;3.00;;
49378;SDS011;35254;47.990;-1.608;2022-08-19T04:26:39;3.17;;;2.80;;
49378;SDS011;35254;47.990;-1.608;2022-08-19T04:29:08;3.83;;;3.47;;
49378;SDS011;35254;47.990;-1.608;2022-08-19T04:34:03;8.57;;;2.83;;
49378;SDS011;35254;47.990;-1.608;2022-08-19T04:36:32;5.75;;;3.05;;
49378;SDS011;35254;47.990;-1.608;2022-08-19T04:39:01;3.95;;;3.55;;
49378;SDS011;35254;47.990;-1.608;2022-08-19T04:41:32;3.72;;;2.58;;
49378;SDS011;35254;47.990;-1.608;2022-08-19T04:44:17;3.50;;;2.47;;
49378;SDS011;35254;47.990;-1.608;2022-08-19T04:46:43;3.15;;;2.58;;
49378;SDS011;35254;47.990;-1.608;2022-08-19T04:49:10;5.25;;;2.85;;
49378;SDS011;35254;47.990;-1.608;2022-08-19T04:51:36;5.75;;;2.80;;
49378;SDS011;35254;47.990;-1.608;2022-08-19T04:54:05;4.90;;;2.47;;
49378;SDS011;35254;47.990;-1.608;2022-08-19T04:56:30;4.05;;;2.90;;
49378;SDS011;35254;47.990;-1.608;2022-08-19T04:58:56;3.60;;;3.05;;
49378;SDS011;35254;47.990;-1.608;2022-08-19T05:01:26;3.55;;;3.25;;
49378;SDS011;35254;47.990;-1.608;2022-08-19T05:03:56;4.38;;;2.95;;
49378;SDS011;35254;47.990;-1.608;2022-08-19T05:06:23;3.35;;;3.03;;
49378;SDS011;35254;47.990;-1.608;2022-08-19T05:08:50;3.72;;;3.42;;
49378;SDS011;35254;47.990;-1.608;2022-08-19T05:11:20;7.30;;;3.88;;
49378;SDS011;35254;47.990;-1.608;2022-08-19T05:13:48;4.55;;;3.20;;
49378;SDS011;35254;47.990;-1.608;2022-08-19T05:16:15;4.47;;;3.33;;
49378;SDS011;35254;47.990;-1.608;2022-08-19T05:18:42;4.03;;;3.33;;
49378;SDS011;35254;47.990;-1.608;2022-08-19T05:21:27;6.03;;;3.28;;
49378;SDS011;35254;47.990;-1.608;2022-08-19T05:24:12;4.22;;;3.53;;
49378;SDS011;35254;47.990;-1.608;2022-08-19T05:26:39;3.63;;;3.13;;
49378;SDS011;35254;47.990;-1.608;2022-08-19T05:29:08;8.18;;;4.00;;
49378;SDS011;35254;47.990;-1.608;2022-08-19T05:31:35;4.93;;;3.88;;
49378;SDS011;35254;47.990;-1.608;2022-08-19T05:34:03;4.90;;;3.67;;
49378;SDS011;35254;47.990;-1.608;2022-08-19T05:36:33;4.55;;;3.92;;
49378;SDS011;35254;47.990;-1.608;2022-08-19T05:39:02;5.38;;;3.85;;
49378;SDS011;35254;47.990;-1.608;2022-08-19T05:41:28;4.28;;;3.80;;
49378;SDS011;35254;47.990;-1.608;2022-08-19T05:44:00;4.30;;;3.80;;
49378;SDS011;35254;47.990;-1.608;2022-08-19T05:46:28;8.07;;;4.65;;
49378;SDS011;35254;47.990;-1.608;2022-08-19T05:48:54;6.88;;;3.72;;
49378;SDS011;35254;47.990;-1.608;2022-08-19T05:51:21;5.03;;;4.22;;
49378;SDS011;35254;47.990;-1.608;2022-08-19T05:53:48;6.32;;;3.40;;
49378;SDS011;35254;47.990;-1.608;2022-08-19T05:56:15;6.35;;;3.70;;
49378;SDS011;35254;47.990;-1.608;2022-08-19T05:58:42;7.25;;;4.20;;
49378;SDS011;35254;47.990;-1.608;2022-08-19T06:01:10;5.10;;;3.65;;
49378;SDS011;35254;47.990;-1.608;2022-08-19T06:03:38;4.68;;;3.63;;
49378;SDS011;35254;47.990;-1.608;2022-08-19T06:06:04;4.53;;;4.03;;
49378;SDS011;35254;47.990;-1.608;2022-08-19T06:08:33;5.60;;;4.00;;
49378;SDS011;35254;47.990;-1.608;2022-08-19T06:11:14;7.05;;;4.05;;
49378;SDS011;35254;47.990;-1.608;2022-08-19T06:13:46;5.20;;;3.97;;
49378;SDS011;35254;47.990;-1.608;2022-08-19T06:16:16;5.20;;;4.63;;
49378;SDS011;35254;47.990;-1.608;2022-08-19T06:18:47;8.18;;;5.28;;
49378;SDS011;35254;47.990;-1.608;2022-08-19T06:21:17;10.70;;;5.20;;
49378;SDS011;35254;47.990;-1.608;2022-08-19T06:23:45;8.27;;;5.25;;
49378;SDS011;35254;47.990;-1.608;2022-08-19T06:26:12;7.07;;;4.53;;
49378;SDS011;35254;47.990;-1.608;2022-08-19T06:28:38;7.88;;;4.35;;
49378;SDS011;35254;47.990;-1.608;2022-08-19T06:31:11;6.00;;;4.68;;
49378;SDS011;35254;47.990;-1.608;2022-08-19T06:33:48;6.95;;;4.93;;
49378;SDS011;35254;47.990;-1.608;2022-08-19T06:38:46;10.25;;;5.10;;
49378;SDS011;35254;47.990;-1.608;2022-08-19T06:41:12;7.93;;;4.38;;
49378;SDS011;35254;47.990;-1.608;2022-08-19T06:43:38;8.93;;;4.60;;
49378;SDS011;35254;47.990;-1.608;2022-08-19T06:46:08;7.70;;;4.63;;
49378;SDS011;35254;47.990;-1.608;2022-08-19T06:48:38;8.80;;;5.00;;
49378;SDS011;35254;47.990;-1.608;2022-08-19T06:51:04;8.80;;;5.10;;
49378;SDS011;35254;47.990;-1.608;2022-08-19T06:53:31;5.80;;;4.50;;
49378;SDS011;35254;47.990;-1.608;2022-08-19T06:55:57;7.80;;;5.45;;
49378;SDS011;35254;47.990;-1.608;2022-08-19T06:58:26;4.45;;;4.05;;
49378;SDS011;35254;47.990;-1.608;2022-08-19T07:00:57;7.57;;;4.35;;
49378;SDS011;35254;47.990;-1.608;2022-08-19T07:03:25;8.80;;;6.00;;
49378;SDS011;35254;47.990;-1.608;2022-08-19T07:05:53;7.82;;;4.70;;
49378;SDS011;35254;47.990;-1.608;2022-08-19T07:08:18;5.78;;;4.35;;
49378;SDS011;35254;47.990;-1.608;2022-08-19T07:10:44;5.97;;;4.93;;
49378;SDS011;35254;47.990;-1.608;2022-08-19T07:13:10;7.25;;;5.22;;
49378;SDS011;35254;47.990;-1.608;2022-08-19T07:15:36;9.68;;;5.10;;
49378;SDS011;35254;47.990;-1.608;2022-08-19T07:20:38;9.75;;;5.53;;
49378;SDS011;35254;47.990;-1.608;2022-08-19T07:23:05;10.88;;;4.95;;
49378;SDS011;35254;47.990;-1.608;2022-08-19T07:25:31;9.80;;;5.13;;
49378;SDS011;35254;47.990;-1.608;2022-08-19T07:27:56;11.23;;;4.93;;
49378;SDS011;35254;47.990;-1.608;2022-08-19T07:30:22;10.65;;;4.80;;
49378;SDS011;35254;47.990;-1.608;2022-08-19T07:32:49;8.98;;;5.57;;
49378;SDS011;35254;47.990;-1.608;2022-08-19T07:35:17;14.05;;;5.53;;
49378;SDS011;35254;47.990;-1.608;2022-08-19T07:37:44;11.65;;;5.90;;
49378;SDS011;35254;47.990;-1.608;2022-08-19T07:40:11;12.13;;;5.53;;
49378;SDS011;35254;47.990;-1.608;2022-08-19T07:42:37;9.00;;;5.55;;
49378;SDS011;35254;47.990;-1.608;2022-08-19T07:45:04;8.40;;;5.30;;
49378;SDS011;35254;47.990;-1.608;2022-08-19T07:47:32;6.78;;;4.68;;
49378;SDS011;35254;47.990;-1.608;2022-08-19T07:49:58;10.10;;;5.32;;
49378;SDS011;35254;47.990;-1.608;2022-08-19T07:52:24;8.90;;;5.25;;
49378;SDS011;35254;47.990;-1.608;2022-08-19T07:54:50;10.35;;;5.13;;
49378;SDS011;35254;47.990;-1.608;2022-08-19T07:57:16;8.98;;;5.63;;
49378;SDS011;35254;47.990;-1.608;2022-08-19T07:59:44;11.65;;;5.90;;
49378;SDS011;35254;47.990;-1.608;2022-08-19T08:02:10;11.32;;;5.93;;
49378;SDS011;35254;47.990;-1.608;2022-08-19T08:04:35;13.48;;;5.93;;
49378;SDS011;35254;47.990;-1.608;2022-08-19T08:07:20;9.38;;;5.70;;
49378;SDS011;35254;47.990;-1.608;2022-08-19T08:10:05;9.55;;;5.68;;
49378;SDS011;35254;47.990;-1.608;2022-08-19T08:12:35;12.40;;;5.82;;
49378;SDS011;35254;47.990;-1.608;2022-08-19T08:15:07;13.02;;;5.95;;
49378;SDS011;35254;47.990;-1.608;2022-08-19T08:17:36;13.57;;;6.18;;
49378;SDS011;35254;47.990;-1.608;2022-08-19T08:20:03;6.40;;;5.28;;
49378;SDS011;35254;47.990;-1.608;2022-08-19T08:22:31;10.07;;;5.50;;
49378;SDS011;35254;47.990;-1.608;2022-08-19T08:25:17;11.73;;;5.47;;
49378;SDS011;35254;47.990;-1.608;2022-08-19T08:27:45;12.43;;;5.45;;
49378;SDS011;35254;47.990;-1.608;2022-08-19T08:30:22;10.00;;;5.28;;
49378;SDS011;35254;47.990;-1.608;2022-08-19T08:32:49;7.30;;;4.72;;
49378;SDS011;35254;47.990;-1.608;2022-08-19T08:35:17;8.57;;;5.53;;
49378;SDS011;35254;47.990;-1.608;2022-08-19T08:37:47;7.57;;;5.30;;
49378;SDS011;35254;47.990;-1.608;2022-08-19T08:46:11;14.75;;;5.95;;
49378;SDS011;35254;47.990;-1.608;2022-08-19T08:51:12;9.30;;;4.57;;
49378;SDS011;35254;47.990;-1.608;2022-08-19T08:53:44;15.60;;;5.18;;
49378;SDS011;35254;47.990;-1.608;2022-08-19T08:56:12;6.28;;;4.00;;
49378;SDS011;35254;47.990;-1.608;2022-08-19T08:58:45;7.43;;;4.15;;
49378;SDS011;35254;47.990;-1.608;2022-08-19T09:01:19;9.38;;;4.90;;
49378;SDS011;35254;47.990;-1.608;2022-08-19T09:03:45;7.45;;;4.35;;
49378;SDS011;35254;47.990;-1.608;2022-08-19T09:14:06;10.20;;;4.38;;
49378;SDS011;35254;47.990;-1.608;2022-08-19T09:16:37;7.88;;;4.28;;
49378;SDS011;35254;47.990;-1.608;2022-08-19T09:19:05;9.40;;;3.92;;
49378;SDS011;35254;47.990;-1.608;2022-08-19T09:21:35;7.53;;;4.53;;
49378;SDS011;35254;47.990;-1.608;2022-08-19T09:24:02;9.05;;;4.43;;
49378;SDS011;35254;47.990;-1.608;2022-08-19T09:26:29;11.82;;;5.18;;
49378;SDS011;35254;47.990;-1.608;2022-08-19T09:28:57;12.40;;;5.10;;
49378;SDS011;35254;47.990;-1.608;2022-08-19T09:31:25;8.23;;;3.90;;
49378;SDS011;35254;47.990;-1.608;2022-08-19T09:33:52;13.80;;;3.67;;
49378;SDS011;35254;47.990;-1.608;2022-08-19T09:36:22;5.07;;;3.03;;
49378;SDS011;35254;47.990;-1.608;2022-08-19T09:38:50;11.27;;;3.95;;
49378;SDS011;35254;47.990;-1.608;2022-08-19T09:41:18;7.63;;;3.33;;
49378;SDS011;35254;47.990;-1.608;2022-08-19T09:43:46;4.82;;;3.17;;
49378;SDS011;35254;47.990;-1.608;2022-08-19T09:46:13;9.07;;;3.30;;
49378;SDS011;35254;47.990;-1.608;2022-08-19T09:48:41;4.78;;;3.22;;
49378;SDS011;35254;47.990;-1.608;2022-08-19T09:51:10;7.55;;;3.30;;
49378;SDS011;35254;47.990;-1.608;2022-08-19T09:53:40;6.18;;;3.08;;
49378;SDS011;35254;47.990;-1.608;2022-08-19T09:56:06;7.07;;;3.63;;
49378;SDS011;35254;47.990;-1.608;2022-08-19T09:58:32;4.90;;;2.45;;
49378;SDS011;35254;47.990;-1.608;2022-08-19T10:00:59;6.80;;;3.53;;
49378;SDS011;35254;47.990;-1.608;2022-08-19T10:03:27;9.43;;;3.10;;
49378;SDS011;35254;47.990;-1.608;2022-08-19T10:05:54;4.07;;;2.63;;
49378;SDS011;35254;47.990;-1.608;2022-08-19T10:08:22;5.55;;;2.83;;
49378;SDS011;35254;47.990;-1.608;2022-08-19T10:10:50;9.07;;;2.63;;
49378;SDS011;35254;47.990;-1.608;2022-08-19T10:13:18;8.40;;;2.80;;
49378;SDS011;35254;47.990;-1.608;2022-08-19T10:15:49;13.02;;;3.30;;
49378;SDS011;35254;47.990;-1.608;2022-08-19T10:18:17;6.63;;;3.03;;
49378;SDS011;35254;47.990;-1.608;2022-08-19T10:20:44;8.95;;;3.17;;
49378;SDS011;35254;47.990;-1.608;2022-08-19T10:23:11;6.30;;;3.25;;
49378;SDS011;35254;47.990;-1.608;2022-08-19T10:25:37;6.97;;;2.58;;
49378;SDS011;35254;47.990;-1.608;2022-08-19T10:28:04;4.85;;;2.47;;
49378;SDS011;35254;47.990;-1.608;2022-08-19T10:30:32;3.50;;;2.28;;
49378;SDS011;35254;47.990;-1.608;2022-08-19T10:32:58;3.85;;;2.20;;
49378;SDS011;35254;47.990;-1.608;2022-08-19T10:35:24;4.35;;;2.03;;
49378;SDS011;35254;47.990;-1.608;2022-08-19T10:37:52;5.45;;;1.70;;
49378;SDS011;35254;47.990;-1.608;2022-08-19T10:40:18;3.47;;;1.58;;
49378;SDS011;35254;47.990;-1.608;2022-08-19T10:42:43;8.60;;;2.15;;
49378;SDS011;35254;47.990;-1.608;2022-08-19T10:45:09;3.92;;;1.27;;
49378;SDS011;35254;47.990;-1.608;2022-08-19T10:47:35;4.57;;;1.70;;
49378;SDS011;35254;47.990;-1.608;2022-08-19T10:50:02;2.70;;;1.55;;
49378;SDS011;35254;47.990;-1.608;2022-08-19T10:52:49;3.80;;;1.60;;
49378;SDS011;35254;47.990;-1.608;2022-08-19T10:55:15;4.25;;;1.98;;
49378;SDS011;35254;47.990;-1.608;2022-08-19T10:58:00;3.10;;;1.55;;
49378;SDS011;35254;47.990;-1.608;2022-08-19T11:00:25;4.25;;;1.33;;
49378;SDS011;35254;47.990;-1.608;2022-08-19T11:02:51;3.67;;;1.92;;
49378;SDS011;35254;47.990;-1.608;2022-08-19T11:05:17;4.93;;;2.10;;
49378;SDS011;35254;47.990;-1.608;2022-08-19T11:07:44;4.63;;;1.50;;
49378;SDS011;35254;47.990;-1.608;2022-08-19T11:10:11;7.07;;;2.17;;
49378;SDS011;35254;47.990;-1.608;2022-08-19T11:12:39;2.50;;;1.83;;
49378;SDS011;35254;47.990;-1.608;2022-08-19T11:15:06;6.72;;;2.22;;
49378;SDS011;35254;47.990;-1.608;2022-08-19T11:17:33;4.90;;;2.40;;
49378;SDS011;35254;47.990;-1.608;2022-08-19T11:20:00;5.45;;;1.75;;
49378;SDS011;35254;47.990;-1.608;2022-08-19T11:22:29;7.40;;;1.42;;
49378;SDS011;35254;47.990;-1.608;2022-08-19T11:24:55;7.85;;;1.85;;
49378;SDS011;35254;47.990;-1.608;2022-08-19T11:27:20;5.28;;;2.42;;
49378;SDS011;35254;47.990;-1.608;2022-08-19T11:29:46;6.55;;;1.33;;
49378;SDS011;35254;47.990;-1.608;2022-08-19T11:32:12;3.65;;;1.67;;
49378;SDS011;35254;47.990;-1.608;2022-08-19T11:34:38;2.40;;;1.35;;
49378;SDS011;35254;47.990;-1.608;2022-08-19T11:37:04;3.28;;;1.48;;
49378;SDS011;35254;47.990;-1.608;2022-08-19T11:39:31;6.75;;;1.90;;
49378;SDS011;35254;47.990;-1.608;2022-08-19T11:41:58;3.03;;;1.30;;
49378;SDS011;35254;47.990;-1.608;2022-08-19T11:44:25;4.18;;;2.22;;
49378;SDS011;35254;47.990;-1.608;2022-08-19T11:46:51;3.65;;;1.58;;
49378;SDS011;35254;47.990;-1.608;2022-08-19T11:49:18;6.30;;;1.42;;
49378;SDS011;35254;47.990;-1.608;2022-08-19T11:51:44;4.45;;;1.52;;
49378;SDS011;35254;47.990;-1.608;2022-08-19T11:54:11;4.43;;;1.58;;
49378;SDS011;35254;47.990;-1.608;2022-08-19T11:56:38;5.97;;;1.55;;
49378;SDS011;35254;47.990;-1.608;2022-08-19T11:59:04;6.18;;;1.92;;
49378;SDS011;35254;47.990;-1.608;2022-08-19T12:01:30;7.80;;;1.98;;
49378;SDS011;35254;47.990;-1.608;2022-08-19T12:03:57;4.30;;;1.42;;
49378;SDS011;35254;47.990;-1.608;2022-08-19T12:06:24;3.83;;;1.40;;
49378;SDS011;35254;47.990;-1.608;2022-08-19T12:08:56;6.57;;;1.48;;
49378;SDS011;35254;47.990;-1.608;2022-08-19T12:11:24;2.28;;;1.15;;
49378;SDS011;35254;47.990;-1.608;2022-08-19T12:13:50;5.75;;;2.05;;
49378;SDS011;35254;47.990;-1.608;2022-08-19T12:16:17;5.00;;;2.10;;
49378;SDS011;35254;47.990;-1.608;2022-08-19T12:18:45;10.73;;;2.42;;
49378;SDS011;35254;47.990;-1.608;2022-08-19T12:21:15;6.32;;;1.67;;
49378;SDS011;35254;47.990;-1.608;2022-08-19T12:23:46;7.80;;;2.30;;
49378;SDS011;35254;47.990;-1.608;2022-08-19T12:26:12;5.80;;;1.60;;
49378;SDS011;35254;47.990;-1.608;2022-08-19T12:28:38;3.80;;;1.58;;
49378;SDS011;35254;47.990;-1.608;2022-08-19T12:31:04;2.92;;;1.67;;
49378;SDS011;35254;47.990;-1.608;2022-08-19T12:33:30;6.72;;;1.88;;
49378;SDS011;35254;47.990;-1.608;2022-08-19T12:36:00;4.88;;;1.73;;
49378;SDS011;35254;47.990;-1.608;2022-08-19T12:38:28;3.03;;;1.38;;
49378;SDS011;35254;47.990;-1.608;2022-08-19T12:40:53;4.53;;;1.15;;
49378;SDS011;35254;47.990;-1.608;2022-08-19T12:43:19;4.15;;;1.27;;
49378;SDS011;35254;47.990;-1.608;2022-08-19T12:45:45;5.38;;;1.98;;
49378;SDS011;35254;47.990;-1.608;2022-08-19T12:48:11;4.40;;;1.48;;
49378;SDS011;35254;47.990;-1.608;2022-08-19T12:50:41;4.90;;;2.10;;
49378;SDS011;35254;47.990;-1.608;2022-08-19T12:55:33;4.65;;;1.85;;
49378;SDS011;35254;47.990;-1.608;2022-08-19T12:57:59;5.72;;;1.40;;
49378;SDS011;35254;47.990;-1.608;2022-08-19T13:00:26;2.88;;;1.10;;
49378;SDS011;35254;47.990;-1.608;2022-08-19T13:02:52;4.93;;;1.15;;
49378;SDS011;35254;47.990;-1.608;2022-08-19T13:05:20;2.15;;;0.90;;
49378;SDS011;35254;47.990;-1.608;2022-08-19T13:07:52;11.68;;;1.40;;
49378;SDS011;35254;47.990;-1.608;2022-08-19T13:10:23;3.95;;;1.17;;
49378;SDS011;35254;47.990;-1.608;2022-08-19T13:12:54;3.63;;;1.02;;
49378;SDS011;35254;47.990;-1.608;2022-08-19T13:15:22;4.75;;;1.70;;
49378;SDS011;35254;47.990;-1.608;2022-08-19T13:17:48;8.05;;;1.20;;
49378;SDS011;35254;47.990;-1.608;2022-08-19T13:20:16;5.15;;;1.25;;
49378;SDS011;35254;47.990;-1.608;2022-08-19T13:22:44;3.42;;;1.60;;
49378;SDS011;35254;47.990;-1.608;2022-08-19T13:25:10;1.10;;;1.00;;
49378;SDS011;35254;47.990;-1.608;2022-08-19T13:27:37;4.15;;;0.80;;
49378;SDS011;35254;47.990;-1.608;2022-08-19T13:30:05;4.38;;;1.02;;
49378;SDS011;35254;47.990;-1.608;2022-08-19T13:32:51;3.10;;;0.70;;
49378;SDS011;35254;47.990;-1.608;2022-08-19T13:35:36;2.42;;;0.70;;
49378;SDS011;35254;47.990;-1.608;2022-08-19T13:38:22;1.48;;;0.95;;
49378;SDS011;35254;47.990;-1.608;2022-08-19T13:40:49;3.28;;;0.60;;
49378;SDS011;35254;47.990;-1.608;2022-08-19T13:43:17;1.33;;;0.73;;
49378;SDS011;35254;47.990;-1.608;2022-08-19T13:45:44;4.38;;;1.17;;
49378;SDS011;35254;47.990;-1.608;2022-08-19T13:48:10;1.38;;;0.90;;
49378;SDS011;35254;47.990;-1.608;2022-08-19T13:50:41;3.85;;;1.35;;
49378;SDS011;35254;47.990;-1.608;2022-08-19T13:53:09;5.75;;;1.35;;
49378;SDS011;35254;47.990;-1.608;2022-08-19T13:55:42;1.35;;;0.80;;
49378;SDS011;35254;47.990;-1.608;2022-08-19T13:58:09;6.35;;;2.03;;
49378;SDS011;35254;47.990;-1.608;2022-08-19T14:00:36;2.75;;;1.15;;
49378;SDS011;35254;47.990;-1.608;2022-08-19T14:03:04;2.85;;;1.13;;
49378;SDS011;35254;47.990;-1.608;2022-08-19T14:05:31;3.53;;;1.05;;
49378;SDS011;35254;47.990;-1.608;2022-08-19T14:07:57;2.80;;;1.00;;
49378;SDS011;35254;47.990;-1.608;2022-08-19T14:10:23;1.50;;;0.98;;
49378;SDS011;35254;47.990;-1.608;2022-08-19T14:12:52;1.25;;;1.10;;
49378;SDS011;35254;47.990;-1.608;2022-08-19T14:17:45;1.75;;;0.77;;
49378;SDS011;35254;47.990;-1.608;2022-08-19T14:20:13;2.50;;;1.42;;
49378;SDS011;35254;47.990;-1.608;2022-08-19T14:22:41;2.20;;;1.20;;
49378;SDS011;35254;47.990;-1.608;2022-08-19T14:25:08;2.15;;;1.20;;
49378;SDS011;35254;47.990;-1.608;2022-08-19T14:27:37;2.33;;;1.10;;
49378;SDS011;35254;47.990;-1.608;2022-08-19T14:30:05;3.95;;;1.13;;
49378;SDS011;35254;47.990;-1.608;2022-08-19T14:32:31;6.00;;;1.00;;
49378;SDS011;35254;47.990;-1.608;2022-08-19T14:34:58;1.88;;;1.00;;
49378;SDS011;35254;47.990;-1.608;2022-08-19T14:37:23;2.17;;;1.05;;
49378;SDS011;35254;47.990;-1.608;2022-08-19T14:39:49;3.80;;;1.42;;
49378;SDS011;35254;47.990;-1.608;2022-08-19T14:42:14;3.25;;;1.10;;
49378;SDS011;35254;47.990;-1.608;2022-08-19T14:44:41;2.83;;;1.58;;
49378;SDS011;35254;47.990;-1.608;2022-08-19T14:47:07;3.22;;;1.23;;
49378;SDS011;35254;47.990;-1.608;2022-08-19T14:49:34;1.90;;;1.40;;
49378;SDS011;35254;47.990;-1.608;2022-08-19T14:52:00;2.92;;;1.95;;
49378;SDS011;35254;47.990;-1.608;2022-08-19T14:54:25;4.55;;;1.60;;
49378;SDS011;35254;47.990;-1.608;2022-08-19T14:56:51;2.92;;;1.75;;
49378;SDS011;35254;47.990;-1.608;2022-08-19T14:59:17;2.60;;;1.25;;
49378;SDS011;35254;47.990;-1.608;2022-08-19T15:01:43;4.28;;;2.17;;
49378;SDS011;35254;47.990;-1.608;2022-08-19T15:04:09;5.78;;;1.50;;
49378;SDS011;35254;47.990;-1.608;2022-08-19T15:06:34;4.18;;;1.52;;
49378;SDS011;35254;47.990;-1.608;2022-08-19T15:09:00;4.47;;;1.88;;